sensor_id;sensor_type;location;lat;lon;timestamp;pressure;altitude;pressure_sealevel;temperature;humidity
55079;BME280;55187;49.496;6.010;2023-01-27T00:00:27;97787.22;;;-0.98;100.00
55079;BME280;55187;49.496;6.010;2023-01-27T00:02:53;97786.06;;;-0.94;100.00
55079;BME280;55187;49.496;6.010;2023-01-27T00:05:20;97780.22;;;-0.85;100.00
55079;BME280;55187;49.496;6.010;2023-01-27T00:07:47;97796.25;;;-0.91;100.00
55079;BME280;55187;49.496;6.010;2023-01-27T00:10:16;97786.66;;;-0.91;100.00
55079;BME280;55187;49.496;6.010;2023-01-27T00:12:44;97781.31;;;-1.00;100.00
55079;BME280;55187;49.496;6.010;2023-01-27T00:15:30;97784.50;;;-0.97;100.00
55079;BME280;55187;49.496;6.010;2023-01-27T00:17:57;97782.03;;;-0.98;100.00
55079;BME280;55187;49.496;6.010;2023-01-27T00:20:25;97782.47;;;-0.80;100.00
55079;BME280;55187;49.496;6.010;2023-01-27T00:23:19;97785.63;;;-0.88;100.00
55079;BME280;55187;49.496;6.010;2023-01-27T00:26:18;97777.00;;;-0.89;100.00
55079;BME280;55187;49.496;6.010;2023-01-27T00:28:46;97780.22;;;-0.85;100.00
55079;BME280;55187;49.496;6.010;2023-01-27T00:31:16;97775.91;;;-0.73;100.00
55079;BME280;55187;49.496;6.010;2023-01-27T00:34:02;97780.56;;;-0.78;100.00
55079;BME280;55187;49.496;6.010;2023-01-27T00:36:38;97769.97;;;-0.75;100.00
55079;BME280;55187;49.496;6.010;2023-01-27T00:39:06;97773.31;;;-0.73;100.00
55079;BME280;55187;49.496;6.010;2023-01-27T00:41:33;97777.38;;;-0.82;100.00
55079;BME280;55187;49.496;6.010;2023-01-27T00:44:00;97779.97;;;-0.82;100.00
55079;BME280;55187;49.496;6.010;2023-01-27T00:46:27;97774.03;;;-0.71;100.00
55079;BME280;55187;49.496;6.010;2023-01-27T00:48:54;97764.44;;;-0.71;100.00
55079;BME280;55187;49.496;6.010;2023-01-27T00:51:20;97772.13;;;-0.69;100.00
55079;BME280;55187;49.496;6.010;2023-01-27T00:53:47;97766.38;;;-0.61;100.00
55079;BME280;55187;49.496;6.010;2023-01-27T00:56:15;97763.72;;;-0.73;100.00
55079;BME280;55187;49.496;6.010;2023-01-27T00:58:43;97766.22;;;-0.71;100.00
55079;BME280;55187;49.496;6.010;2023-01-27T01:01:12;97757.91;;;-0.76;100.00
55079;BME280;55187;49.496;6.010;2023-01-27T01:03:39;97756.84;;;-0.74;100.00
55079;BME280;55187;49.496;6.010;2023-01-27T01:06:14;97761.03;;;-0.71;100.00
55079;BME280;55187;49.496;6.010;2023-01-27T01:08:41;97757.47;;;-0.70;100.00
55079;BME280;55187;49.496;6.010;2023-01-27T01:11:11;97758.09;;;-0.55;100.00
55079;BME280;55187;49.496;6.010;2023-01-27T01:13:39;97764.38;;;-0.58;100.00
55079;BME280;55187;49.496;6.010;2023-01-27T01:16:11;97759.31;;;-0.59;100.00
55079;BME280;55187;49.496;6.010;2023-01-27T01:18:38;97764.59;;;-0.61;100.00
55079;BME280;55187;49.496;6.010;2023-01-27T01:21:05;97763.31;;;-0.55;100.00
55079;BME280;55187;49.496;6.010;2023-01-27T01:23:33;97763.34;;;-0.44;100.00
55079;BME280;55187;49.496;6.010;2023-01-27T01:26:00;97768.69;;;-0.46;100.00
55079;BME280;55187;49.496;6.010;2023-01-27T01:28:27;97755.88;;;-0.49;100.00
55079;BME280;55187;49.496;6.010;2023-01-27T01:30:54;97765.34;;;-0.48;100.00
55079;BME280;55187;49.496;6.010;2023-01-27T01:33:21;97770.22;;;-0.43;100.00
55079;BME280;55187;49.496;6.010;2023-01-27T01:35:47;97773.41;;;-0.39;100.00
55079;BME280;55187;49.496;6.010;2023-01-27T01:38:13;97780.53;;;-0.30;100.00
55079;BME280;55187;49.496;6.010;2023-01-27T01:40:42;97764.34;;;-0.34;100.00
55079;BME280;55187;49.496;6.010;2023-01-27T01:43:17;97775.56;;;-0.33;100.00
55079;BME280;55187;49.496;6.010;2023-01-27T01:45:52;97770.97;;;-0.30;100.00
55079;BME280;55187;49.496;6.010;2023-01-27T01:50:56;97756.06;;;-0.39;100.00
55079;BME280;55187;49.496;6.010;2023-01-27T01:53:26;97768.34;;;-0.41;100.00
55079;BME280;55187;49.496;6.010;2023-01-27T01:55:57;97759.97;;;-0.33;100.00
55079;BME280;55187;49.496;6.010;2023-01-27T01:58:26;97753.13;;;-0.23;100.00
55079;BME280;55187;49.496;6.010;2023-01-27T02:00:54;97759.84;;;-0.32;100.00
55079;BME280;55187;49.496;6.010;2023-01-27T02:03:23;97763.28;;;-0.31;100.00
55079;BME280;55187;49.496;6.010;2023-01-27T02:05:51;97762.22;;;-0.29;100.00
55079;BME280;55187;49.496;6.010;2023-01-27T02:08:27;97761.41;;;-0.29;100.00
55079;BME280;55187;49.496;6.010;2023-01-27T02:10:55;97751.19;;;-0.32;100.00
55079;BME280;55187;49.496;6.010;2023-01-27T02:13:21;97757.97;;;-0.30;100.00
55079;BME280;55187;49.496;6.010;2023-01-27T02:15:49;97757.84;;;-0.28;100.00
55079;BME280;55187;49.496;6.010;2023-01-27T02:18:19;97755.38;;;-0.30;100.00
55079;BME280;55187;49.496;6.010;2023-01-27T02:20:50;97760.56;;;-0.30;100.00
55079;BME280;55187;49.496;6.010;2023-01-27T02:28:43;97750.16;;;-0.30;100.00
55079;BME280;55187;49.496;6.010;2023-01-27T02:31:10;97757.97;;;-0.30;100.00
55079;BME280;55187;49.496;6.010;2023-01-27T02:33:37;97749.31;;;-0.30;100.00
55079;BME280;55187;49.496;6.010;2023-01-27T02:36:14;97745.56;;;-0.26;100.00
55079;BME280;55187;49.496;6.010;2023-01-27T02:38:53;97748.50;;;-0.31;100.00
55079;BME280;55187;49.496;6.010;2023-01-27T02:41:36;97760.91;;;-0.34;100.00
55079;BME280;55187;49.496;6.010;2023-01-27T02:44:06;97762.47;;;-0.32;100.00
55079;BME280;55187;49.496;6.010;2023-01-27T02:46:33;97762.56;;;-0.33;100.00
55079;BME280;55187;49.496;6.010;2023-01-27T02:49:00;97759.97;;;-0.33;100.00
55079;BME280;55187;49.496;6.010;2023-01-27T02:51:27;97763.63;;;-0.36;100.00
55079;BME280;55187;49.496;6.010;2023-01-27T02:53:53;97762.47;;;-0.32;100.00
55079;BME280;55187;49.496;6.010;2023-01-27T02:56:21;97763.50;;;-0.34;100.00
55079;BME280;55187;49.496;6.010;2023-01-27T02:58:48;97758.75;;;-0.40;100.00
55079;BME280;55187;49.496;6.010;2023-01-27T03:01:17;97764.44;;;-0.35;100.00
55079;BME280;55187;49.496;6.010;2023-01-27T03:03:44;97771.75;;;-0.40;100.00
55079;BME280;55187;49.496;6.010;2023-01-27T03:06:12;97751.78;;;-0.40;100.00
55079;BME280;55187;49.496;6.010;2023-01-27T03:08:40;97758.66;;;-0.39;100.00
55079;BME280;55187;49.496;6.010;2023-01-27T03:11:07;97757.44;;;-0.46;100.00
55079;BME280;55187;49.496;6.010;2023-01-27T03:13:34;97750.47;;;-0.46;100.00
55079;BME280;55187;49.496;6.010;2023-01-27T03:16:02;97760.63;;;-0.43;100.00
55079;BME280;55187;49.496;6.010;2023-01-27T03:18:48;97753.81;;;-0.44;100.00
55079;BME280;55187;49.496;6.010;2023-01-27T03:21:18;97752.75;;;-0.41;100.00
55079;BME280;55187;49.496;6.010;2023-01-27T03:23:45;97751.41;;;-0.47;100.00
55079;BME280;55187;49.496;6.010;2023-01-27T03:26:16;97751.31;;;-0.45;100.00
55079;BME280;55187;49.496;6.010;2023-01-27T03:28:46;97748.34;;;-0.40;100.00
55079;BME280;55187;49.496;6.010;2023-01-27T03:31:34;97749.41;;;-0.43;100.00
55079;BME280;55187;49.496;6.010;2023-01-27T03:34:02;97749.53;;;-0.45;100.00
55079;BME280;55187;49.496;6.010;2023-01-27T03:36:37;97745.50;;;-0.49;100.00
55079;BME280;55187;49.496;6.010;2023-01-27T03:39:22;97750.47;;;-0.46;100.00
55079;BME280;55187;49.496;6.010;2023-01-27T03:42:07;97756.59;;;-0.47;100.00
55079;BME280;55187;49.496;6.010;2023-01-27T03:44:54;97758.28;;;-0.46;100.00
55079;BME280;55187;49.496;6.010;2023-01-27T03:47:39;97748.13;;;-0.37;100.00
55079;BME280;55187;49.496;6.010;2023-01-27T03:50:05;97754.63;;;-0.43;100.00
55079;BME280;55187;49.496;6.010;2023-01-27T03:52:36;97753.56;;;-0.40;100.00
55079;BME280;55187;49.496;6.010;2023-01-27T03:55:03;97752.47;;;-0.49;100.00
55079;BME280;55187;49.496;6.010;2023-01-27T03:57:30;97757.66;;;-0.49;100.00
55079;BME280;55187;49.496;6.010;2023-01-27T03:59:56;97743.38;;;-0.55;100.00
55079;BME280;55187;49.496;6.010;2023-01-27T04:02:23;97749.75;;;-0.48;100.00
55079;BME280;55187;49.496;6.010;2023-01-27T04:05:08;97751.75;;;-0.51;100.00
55079;BME280;55187;49.496;6.010;2023-01-27T04:07:53;97752.22;;;-0.46;100.00
55079;BME280;55187;49.496;6.010;2023-01-27T04:10:19;97749.88;;;-0.49;100.00
55079;BME280;55187;49.496;6.010;2023-01-27T04:12:47;97754.34;;;-0.51;100.00
55079;BME280;55187;49.496;6.010;2023-01-27T04:15:13;97756.03;;;-0.50;100.00
55079;BME280;55187;49.496;6.010;2023-01-27T04:17:40;97749.03;;;-0.50;100.00
55079;BME280;55187;49.496;6.010;2023-01-27T04:20:08;97749.88;;;-0.49;100.00
55079;BME280;55187;49.496;6.010;2023-01-27T04:22:35;97749.16;;;-0.51;100.00
55079;BME280;55187;49.496;6.010;2023-01-27T04:25:01;97749.72;;;-0.59;100.00
55079;BME280;55187;49.496;6.010;2023-01-27T04:27:27;97747.94;;;-0.58;100.00
55079;BME280;55187;49.496;6.010;2023-01-27T04:29:54;97757.09;;;-0.53;100.00
55079;BME280;55187;49.496;6.010;2023-01-27T04:32:20;97752.56;;;-0.51;100.00
55079;BME280;55187;49.496;6.010;2023-01-27T04:34:46;97756.03;;;-0.50;100.00
55079;BME280;55187;49.496;6.010;2023-01-27T04:37:13;97754.47;;;-0.53;100.00
55079;BME280;55187;49.496;6.010;2023-01-27T04:39:40;97750.22;;;-0.54;100.00
55079;BME280;55187;49.496;6.010;2023-01-27T04:42:07;97752.81;;;-0.54;100.00
55079;BME280;55187;49.496;6.010;2023-01-27T04:44:33;97760.38;;;-0.51;100.00
55079;BME280;55187;49.496;6.010;2023-01-27T04:47:00;97761.31;;;-0.52;100.00
55079;BME280;55187;49.496;6.010;2023-01-27T04:49:26;97758.38;;;-0.47;100.00
55079;BME280;55187;49.496;6.010;2023-01-27T04:51:53;97760.50;;;-0.52;100.00
55079;BME280;55187;49.496;6.010;2023-01-27T04:54:20;97762.16;;;-0.51;100.00
55079;BME280;55187;49.496;6.010;2023-01-27T04:56:56;97765.50;;;-0.38;100.00
55079;BME280;55187;49.496;6.010;2023-01-27T04:59:22;97760.25;;;-0.49;100.00
55079;BME280;55187;49.496;6.010;2023-01-27T05:01:49;97772.53;;;-0.51;100.00
55079;BME280;55187;49.496;6.010;2023-01-27T05:04:17;97768.16;;;-0.51;100.00
55079;BME280;55187;49.496;6.010;2023-01-27T05:06:43;97770.19;;;-0.54;100.00
55079;BME280;55187;49.496;6.010;2023-01-27T05:09:09;97777.25;;;-0.56;100.00
55079;BME280;55187;49.496;6.010;2023-01-27T05:11:36;97774.31;;;-0.52;100.00
55079;BME280;55187;49.496;6.010;2023-01-27T05:14:03;97780.69;;;-0.56;100.00
55079;BME280;55187;49.496;6.010;2023-01-27T05:16:29;97780.81;;;-0.46;100.00
55079;BME280;55187;49.496;6.010;2023-01-27T05:18:55;97776.44;;;-0.57;100.00
55079;BME280;55187;49.496;6.010;2023-01-27T05:21:24;97784.22;;;-0.57;100.00
55079;BME280;55187;49.496;6.010;2023-01-27T05:23:53;97775.63;;;-0.57;100.00
55079;BME280;55187;49.496;6.010;2023-01-27T05:26:24;97781.41;;;-0.54;100.00
55079;BME280;55187;49.496;6.010;2023-01-27T05:28:52;97785.16;;;-0.58;100.00
55079;BME280;55187;49.496;6.010;2023-01-27T05:31:21;97793.09;;;-0.59;100.00
55079;BME280;55187;49.496;6.010;2023-01-27T05:33:49;97784.00;;;-0.54;100.00
55079;BME280;55187;49.496;6.010;2023-01-27T05:36:17;97784.94;;;-0.55;100.00
55079;BME280;55187;49.496;6.010;2023-01-27T05:38:45;97795.13;;;-0.52;100.00
55079;BME280;55187;49.496;6.010;2023-01-27T05:41:13;97793.66;;;-0.56;100.00
55079;BME280;55187;49.496;6.010;2023-01-27T05:43:41;97806.91;;;-0.59;100.00
55079;BME280;55187;49.496;6.010;2023-01-27T05:46:15;97798.28;;;-0.59;100.00
55079;BME280;55187;49.496;6.010;2023-01-27T05:48:48;97808.34;;;-0.55;100.00
55079;BME280;55187;49.496;6.010;2023-01-27T05:51:16;97810.00;;;-0.54;100.00
55079;BME280;55187;49.496;6.010;2023-01-27T05:53:43;97813.22;;;-0.50;100.00
55079;BME280;55187;49.496;6.010;2023-01-27T05:56:12;97806.81;;;-0.46;100.00
55079;BME280;55187;49.496;6.010;2023-01-27T05:58:39;97815.56;;;-0.47;100.00
55079;BME280;55187;49.496;6.010;2023-01-27T06:01:18;97807.06;;;-0.49;100.00
55079;BME280;55187;49.496;6.010;2023-01-27T06:03:46;97818.78;;;-0.44;100.00
55079;BME280;55187;49.496;6.010;2023-01-27T06:06:15;97809.22;;;-0.43;100.00
55079;BME280;55187;49.496;6.010;2023-01-27T06:08:42;97814.41;;;-0.43;100.00
55079;BME280;55187;49.496;6.010;2023-01-27T06:11:09;97813.16;;;-0.26;100.00
55079;BME280;55187;49.496;6.010;2023-01-27T06:13:35;97830.19;;;-0.22;100.00
55079;BME280;55187;49.496;6.010;2023-01-27T06:16:06;97828.03;;;-0.28;100.00
55079;BME280;55187;49.496;6.010;2023-01-27T06:18:33;97828.22;;;-0.43;100.00
55079;BME280;55187;49.496;6.010;2023-01-27T06:21:00;97829.84;;;-0.53;100.00
55079;BME280;55187;49.496;6.010;2023-01-27T06:23:28;97828.41;;;-0.57;100.00
55079;BME280;55187;49.496;6.010;2023-01-27T06:25:55;97825.47;;;-0.52;100.00
55079;BME280;55187;49.496;6.010;2023-01-27T06:28:22;97831.13;;;-0.58;100.00
55079;BME280;55187;49.496;6.010;2023-01-27T06:30:48;97839.41;;;-0.53;100.00
55079;BME280;55187;49.496;6.010;2023-01-27T06:33:16;97835.88;;;-0.52;100.00
55079;BME280;55187;49.496;6.010;2023-01-27T06:35:42;97840.47;;;-0.56;100.00
55079;BME280;55187;49.496;6.010;2023-01-27T06:38:10;97830.44;;;-0.49;100.00
55079;BME280;55187;49.496;6.010;2023-01-27T06:40:40;97831.00;;;-0.57;100.00
55079;BME280;55187;49.496;6.010;2023-01-27T06:43:11;97832.16;;;-0.61;100.00
55079;BME280;55187;49.496;6.010;2023-01-27T06:45:38;97842.47;;;-0.59;100.00
55079;BME280;55187;49.496;6.010;2023-01-27T06:48:05;97835.25;;;-0.56;100.00
55079;BME280;55187;49.496;6.010;2023-01-27T06:50:33;97836.41;;;-0.60;100.00
55079;BME280;55187;49.496;6.010;2023-01-27T06:53:02;97847.44;;;-0.56;100.00
55079;BME280;55187;49.496;6.010;2023-01-27T06:55:30;97847.19;;;-0.53;100.00
55079;BME280;55187;49.496;6.010;2023-01-27T06:57:57;97844.59;;;-0.53;100.00
55079;BME280;55187;49.496;6.010;2023-01-27T07:00:23;97847.66;;;-0.59;100.00
55079;BME280;55187;49.496;6.010;2023-01-27T07:02:50;97842.63;;;-0.50;100.00
55079;BME280;55187;49.496;6.010;2023-01-27T07:05:18;97855.63;;;-0.50;100.00
55079;BME280;55187;49.496;6.010;2023-01-27T07:07:45;97854.75;;;-0.61;100.00
55079;BME280;55187;49.496;6.010;2023-01-27T07:10:11;97859.13;;;-0.62;100.00
55079;BME280;55187;49.496;6.010;2023-01-27T07:12:38;97851.25;;;-0.49;100.00
55079;BME280;55187;49.496;6.010;2023-01-27T07:15:05;97861.91;;;-0.65;100.00
55079;BME280;55187;49.496;6.010;2023-01-27T07:17:33;97872.59;;;-0.57;100.00
55079;BME280;55187;49.496;6.010;2023-01-27T07:19:59;97865.56;;;-0.68;100.00
55079;BME280;55187;49.496;6.010;2023-01-27T07:22:26;97876.19;;;-0.71;100.00
55079;BME280;55187;49.496;6.010;2023-01-27T07:24:52;97878.56;;;-0.68;100.00
55079;BME280;55187;49.496;6.010;2023-01-27T07:27:24;97883.97;;;-0.71;100.00
55079;BME280;55187;49.496;6.010;2023-01-27T07:29:51;97882.31;;;-0.72;100.00
55079;BME280;55187;49.496;6.010;2023-01-27T07:32:17;97882.84;;;-0.67;100.00
55079;BME280;55187;49.496;6.010;2023-01-27T07:34:44;97883.97;;;-0.71;100.00
55079;BME280;55187;49.496;6.010;2023-01-27T07:37:10;97881.47;;;-0.72;100.00
55079;BME280;55187;49.496;6.010;2023-01-27T07:39:37;97884.91;;;-0.72;100.00
55079;BME280;55187;49.496;6.010;2023-01-27T07:42:04;97883.91;;;-0.58;100.00
55079;BME280;55187;49.496;6.010;2023-01-27T07:44:31;97889.25;;;-0.59;100.00
55079;BME280;55187;49.496;6.010;2023-01-27T07:46:58;97887.25;;;-0.56;100.00
55079;BME280;55187;49.496;6.010;2023-01-27T07:49:27;97888.63;;;-0.63;100.00
55079;BME280;55187;49.496;6.010;2023-01-27T07:51:54;97888.63;;;-0.63;100.00
55079;BME280;55187;49.496;6.010;2023-01-27T07:54:20;97891.53;;;-0.55;100.00
55079;BME280;55187;49.496;6.010;2023-01-27T07:56:47;97888.03;;;-0.67;100.00
55079;BME280;55187;49.496;6.010;2023-01-27T07:59:13;97896.91;;;-0.58;100.00
55079;BME280;55187;49.496;6.010;2023-01-27T08:01:40;97906.25;;;-0.55;100.00
55079;BME280;55187;49.496;6.010;2023-01-27T08:04:07;97903.66;;;-0.55;100.00
55079;BME280;55187;49.496;6.010;2023-01-27T08:06:33;97911.66;;;-0.46;100.00
55079;BME280;55187;49.496;6.010;2023-01-27T08:09:00;97919.16;;;-0.54;100.00
55079;BME280;55187;49.496;6.010;2023-01-27T08:11:31;97906.97;;;-0.53;100.00
55079;BME280;55187;49.496;6.010;2023-01-27T08:14:00;97920.78;;;-0.40;100.00
55079;BME280;55187;49.496;6.010;2023-01-27T08:16:27;97920.19;;;-0.44;100.00
55079;BME280;55187;49.496;6.010;2023-01-27T08:18:53;97915.19;;;-0.47;100.00
55079;BME280;55187;49.496;6.010;2023-01-27T08:21:22;97911.53;;;-0.44;100.00
55079;BME280;55187;49.496;6.010;2023-01-27T08:23:52;97918.16;;;-0.40;100.00
55079;BME280;55187;49.496;6.010;2023-01-27T08:26:18;97916.22;;;-0.49;100.00
55079;BME280;55187;49.496;6.010;2023-01-27T08:28:47;97920.38;;;-0.47;100.00
55079;BME280;55187;49.496;6.010;2023-01-27T08:31:15;97918.72;;;-0.48;100.00
55079;BME280;55187;49.496;6.010;2023-01-27T08:33:43;97927.19;;;-0.33;100.00
55079;BME280;55187;49.496;6.010;2023-01-27T08:36:13;97922.16;;;-0.47;100.00
55079;BME280;55187;49.496;6.010;2023-01-27T08:38:43;97920.59;;;-0.50;100.00
55079;BME280;55187;49.496;6.010;2023-01-27T08:41:13;97927.59;;;-0.50;100.00
55079;BME280;55187;49.496;6.010;2023-01-27T08:43:41;97933.69;;;-0.51;100.00
55079;BME280;55187;49.496;6.010;2023-01-27T08:46:08;97940.25;;;-0.46;100.00
55079;BME280;55187;49.496;6.010;2023-01-27T08:48:35;97929.78;;;-0.57;100.00
55079;BME280;55187;49.496;6.010;2023-01-27T08:51:03;97935.63;;;-0.66;100.00
55079;BME280;55187;49.496;6.010;2023-01-27T08:53:30;97930.94;;;-0.61;100.00
55079;BME280;55187;49.496;6.010;2023-01-27T08:56:00;97939.22;;;-0.56;100.00
55079;BME280;55187;49.496;6.010;2023-01-27T08:58:27;97931.00;;;-0.50;100.00
55079;BME280;55187;49.496;6.010;2023-01-27T09:00:54;97941.81;;;-0.56;100.00
55079;BME280;55187;49.496;6.010;2023-01-27T09:03:20;97938.19;;;-0.53;100.00
55079;BME280;55187;49.496;6.010;2023-01-27T09:05:47;97931.16;;;-0.64;100.00
55079;BME280;55187;49.496;6.010;2023-01-27T09:08:13;97939.56;;;-0.60;100.00
55079;BME280;55187;49.496;6.010;2023-01-27T09:10:41;97947.56;;;-0.64;100.00
55079;BME280;55187;49.496;6.010;2023-01-27T09:13:08;97945.94;;;-0.40;100.00
55079;BME280;55187;49.496;6.010;2023-01-27T09:15:36;97930.34;;;-0.40;100.00
55079;BME280;55187;49.496;6.010;2023-01-27T09:18:03;97941.94;;;-0.20;100.00
55079;BME280;55187;49.496;6.010;2023-01-27T09:20:30;97938.59;;;-0.23;100.00
55079;BME280;55187;49.496;6.010;2023-01-27T09:22:57;97935.16;;;-0.23;100.00
55079;BME280;55187;49.496;6.010;2023-01-27T09:25:24;97945.28;;;-0.31;100.00
55079;BME280;55187;49.496;6.010;2023-01-27T09:27:54;97951.88;;;-0.14;100.00
55079;BME280;55187;49.496;6.010;2023-01-27T09:30:21;97941.59;;;-0.16;100.00
55079;BME280;55187;49.496;6.010;2023-01-27T09:32:48;97950.56;;;-0.20;100.00
55079;BME280;55187;49.496;6.010;2023-01-27T09:35:15;97955.81;;;-0.09;100.00
55079;BME280;55187;49.496;6.010;2023-01-27T09:37:52;97961.59;;;-0.05;100.00
55079;BME280;55187;49.496;6.010;2023-01-27T09:43:06;97957.63;;;0.02;100.00
55079;BME280;55187;49.496;6.010;2023-01-27T09:49:23;97974.28;;;0.24;100.00
55079;BME280;55187;49.496;6.010;2023-01-27T09:58:06;97977.19;;;0.08;100.00
55079;BME280;55187;49.496;6.010;2023-01-27T10:18:33;97981.56;;;0.43;100.00
55079;BME280;55187;49.496;6.010;2023-01-27T10:21:12;97984.94;;;0.56;100.00
55079;BME280;55187;49.496;6.010;2023-01-27T10:24:01;97990.00;;;0.57;100.00
55079;BME280;55187;49.496;6.010;2023-01-27T10:29:30;97985.94;;;0.42;100.00
55079;BME280;55187;49.496;6.010;2023-01-27T10:35:08;97982.31;;;0.56;100.00
55079;BME280;55187;49.496;6.010;2023-01-27T10:40:23;97984.38;;;0.75;100.00
55079;BME280;55187;49.496;6.010;2023-01-27T10:48:48;97976.81;;;0.94;100.00
55079;BME280;55187;49.496;6.010;2023-01-27T10:51:21;97982.25;;;0.91;100.00
55079;BME280;55187;49.496;6.010;2023-01-27T10:53:57;97978.97;;;1.00;100.00
55079;BME280;55187;49.496;6.010;2023-01-27T10:59:21;97974.72;;;1.11;100.00
55079;BME280;55187;49.496;6.010;2023-01-27T11:02:16;97982.03;;;0.83;100.00
55079;BME280;55187;49.496;6.010;2023-01-27T11:04:47;97980.59;;;0.79;100.00
55079;BME280;55187;49.496;6.010;2023-01-27T11:07:19;97980.97;;;0.97;100.00
55079;BME280;55187;49.496;6.010;2023-01-27T11:09:58;97976.09;;;1.03;100.00
55079;BME280;55187;49.496;6.010;2023-01-27T11:12:38;97976.88;;;0.59;100.00
55079;BME280;55187;49.496;6.010;2023-01-27T11:17:48;97968.78;;;1.31;100.00
55079;BME280;55187;49.496;6.010;2023-01-27T11:20:37;97977.28;;;1.44;100.00
55079;BME280;55187;49.496;6.010;2023-01-27T11:23:17;97969.84;;;1.40;100.00
55079;BME280;55187;49.496;6.010;2023-01-27T11:34:20;97963.81;;;1.28;100.00
55079;BME280;55187;49.496;6.010;2023-01-27T11:36:49;97958.22;;;1.55;100.00
55079;BME280;55187;49.496;6.010;2023-01-27T11:39:16;97950.03;;;1.60;100.00
55079;BME280;55187;49.496;6.010;2023-01-27T11:41:51;97953.06;;;1.76;100.00
55079;BME280;55187;49.496;6.010;2023-01-27T11:44:23;97955.91;;;1.84;100.00
55079;BME280;55187;49.496;6.010;2023-01-27T11:46:51;97949.09;;;1.50;100.00
55079;BME280;55187;49.496;6.010;2023-01-27T11:49:24;97940.78;;;1.99;100.00
55079;BME280;55187;49.496;6.010;2023-01-27T11:51:59;97946.16;;;1.86;100.00
55079;BME280;55187;49.496;6.010;2023-01-27T11:54:47;97947.94;;;1.86;100.00
55079;BME280;55187;49.496;6.010;2023-01-27T11:57:18;97936.84;;;2.05;100.00
55079;BME280;55187;49.496;6.010;2023-01-27T11:59:51;97935.09;;;1.94;100.00
55079;BME280;55187;49.496;6.010;2023-01-27T12:12:51;97925.75;;;1.92;100.00
55079;BME280;55187;49.496;6.010;2023-01-27T12:15:18;97944.41;;;1.76;100.00
55079;BME280;55187;49.496;6.010;2023-01-27T12:17:47;97937.66;;;1.73;100.00
55079;BME280;55187;49.496;6.010;2023-01-27T12:22:51;97939.25;;;1.53;100.00
55079;BME280;55187;49.496;6.010;2023-01-27T12:25:25;97937.97;;;1.48;100.00
55079;BME280;55187;49.496;6.010;2023-01-27T12:28:01;97938.84;;;1.69;100.00
55079;BME280;55187;49.496;6.010;2023-01-27T12:30:36;97940.25;;;2.17;100.00
55079;BME280;55187;49.496;6.010;2023-01-27T12:33:13;97930.22;;;2.01;100.00
55079;BME280;55187;49.496;6.010;2023-01-27T12:35:48;97931.63;;;2.05;100.00
55079;BME280;55187;49.496;6.010;2023-01-27T12:38:20;97925.34;;;2.07;100.00
55079;BME280;55187;49.496;6.010;2023-01-27T12:40:57;97923.53;;;2.08;100.00
55079;BME280;55187;49.496;6.010;2023-01-27T12:43:25;97923.16;;;1.37;100.00
55079;BME280;55187;49.496;6.010;2023-01-27T12:46:17;97922.97;;;1.61;100.00
55079;BME280;55187;49.496;6.010;2023-01-27T12:48:53;97912.44;;;1.62;100.00
55079;BME280;55187;49.496;6.010;2023-01-27T12:51:43;97906.22;;;1.75;100.00
55079;BME280;55187;49.496;6.010;2023-01-27T12:54:21;97913.97;;;1.65;100.00
55079;BME280;55187;49.496;6.010;2023-01-27T12:56:50;97915.03;;;1.62;100.00
55079;BME280;55187;49.496;6.010;2023-01-27T12:59:19;97910.19;;;1.58;100.00
55079;BME280;55187;49.496;6.010;2023-01-27T13:02:00;97904.97;;;1.58;100.00
55079;BME280;55187;49.496;6.010;2023-01-27T13:04:27;97912.66;;;1.71;100.00
55079;BME280;55187;49.496;6.010;2023-01-27T13:07:06;97905.63;;;1.16;100.00
55079;BME280;55187;49.496;6.010;2023-01-27T13:09:49;97905.69;;;1.49;100.00
55079;BME280;55187;49.496;6.010;2023-01-27T13:12:34;97903.16;;;1.70;100.00
55079;BME280;55187;49.496;6.010;2023-01-27T13:15:24;97903.97;;;1.70;100.00
55079;BME280;55187;49.496;6.010;2023-01-27T13:17:55;97901.69;;;1.77;100.00
55079;BME280;55187;49.496;6.010;2023-01-27T13:20:34;97901.59;;;1.78;100.00
55079;BME280;55187;49.496;6.010;2023-01-27T13:23:18;97907.25;;;1.29;100.00
55079;BME280;55187;49.496;6.010;2023-01-27T13:25:52;97906.81;;;1.23;100.00
55079;BME280;55187;49.496;6.010;2023-01-27T13:28:24;97915.50;;;1.56;100.00
55079;BME280;55187;49.496;6.010;2023-01-27T13:30:57;97912.88;;;1.67;100.00
55079;BME280;55187;49.496;6.010;2023-01-27T13:36:35;97924.91;;;1.59;100.00
55079;BME280;55187;49.496;6.010;2023-01-27T13:41:38;97916.03;;;1.50;100.00
55079;BME280;55187;49.496;6.010;2023-01-27T13:44:16;97910.63;;;1.63;100.00
55079;BME280;55187;49.496;6.010;2023-01-27T13:46:46;97901.84;;;1.75;100.00
55079;BME280;55187;49.496;6.010;2023-01-27T13:49:31;97905.16;;;1.77;100.00
55079;BME280;55187;49.496;6.010;2023-01-27T13:51:58;97918.44;;;1.74;100.00
55079;BME280;55187;49.496;6.010;2023-01-27T13:54:26;97901.72;;;1.65;100.00
55079;BME280;55187;49.496;6.010;2023-01-27T13:59:32;97913.09;;;1.76;100.00
55079;BME280;55187;49.496;6.010;2023-01-27T14:10:40;97921.00;;;1.31;100.00
55079;BME280;55187;49.496;6.010;2023-01-27T14:21:16;97934.75;;;1.44;100.00
55079;BME280;55187;49.496;6.010;2023-01-27T14:26:55;97932.25;;;1.42;100.00
55079;BME280;55187;49.496;6.010;2023-01-27T14:29:32;97937.25;;;1.34;100.00
55079;BME280;55187;49.496;6.010;2023-01-27T14:40:23;97948.97;;;1.29;100.00
55079;BME280;55187;49.496;6.010;2023-01-27T14:43:51;97951.84;;;1.25;100.00
55079;BME280;55187;49.496;6.010;2023-01-27T14:51:27;97948.63;;;1.22;100.00
55079;BME280;55187;49.496;6.010;2023-01-27T14:59:39;97959.75;;;1.35;100.00
55079;BME280;55187;49.496;6.010;2023-01-27T15:05:26;97973.03;;;1.10;100.00
55079;BME280;55187;49.496;6.010;2023-01-27T15:16:25;97985.84;;;1.01;100.00
55079;BME280;55187;49.496;6.010;2023-01-27T15:27:26;98008.22;;;0.93;100.00
55079;BME280;55187;49.496;6.010;2023-01-27T15:29:53;97999.44;;;1.05;100.00
55079;BME280;55187;49.496;6.010;2023-01-27T15:32:28;97996.47;;;0.87;100.00
55079;BME280;55187;49.496;6.010;2023-01-27T15:40:28;98011.84;;;0.79;100.00
55079;BME280;55187;49.496;6.010;2023-01-27T15:45:36;98025.38;;;0.49;100.00